createdAt,value
2022-10-12T00:02:23.956Z,5.30
2022-10-12T00:04:50.912Z,4.70
2022-10-12T00:07:17.903Z,5.00
2022-10-12T00:09:45.039Z,4.57
2022-10-12T00:12:12.128Z,4.63
2022-10-12T00:14:39.115Z,4.57
2022-10-12T00:17:06.027Z,4.80
2022-10-12T00:19:32.920Z,4.73
2022-10-12T00:21:59.833Z,6.00
2022-10-12T00:24:26.805Z,5.10
2022-10-12T00:26:53.852Z,4.73
2022-10-12T00:29:20.933Z,4.70
2022-10-12T00:31:47.888Z,4.90
2022-10-12T00:34:15.026Z,4.70
2022-10-12T00:36:42.066Z,4.60
2022-10-12T00:39:09.760Z,5.20
2022-10-12T00:41:42.886Z,5.30
2022-10-12T00:44:54.831Z,4.97
2022-10-12T00:47:47.676Z,4.90
2022-10-12T00:50:35.466Z,5.10
2022-10-12T00:53:11.113Z,4.07
2022-10-12T00:55:44.620Z,4.70
2022-10-12T00:58:11.808Z,4.77
2022-10-12T01:00:39.983Z,5.30
2022-10-12T01:03:09.712Z,4.70
2022-10-12T01:05:39.622Z,4.00
2022-10-12T01:08:07.060Z,4.80
2022-10-12T01:10:33.971Z,4.50
2022-10-12T01:13:01.443Z,4.83
2022-10-12T01:15:34.738Z,4.80
2022-10-12T01:18:24.068Z,4.73
2022-10-12T01:21:17.287Z,4.67
2022-10-12T01:24:24.192Z,4.90
2022-10-12T01:27:12.337Z,5.27
2022-10-12T01:29:50.108Z,5.17
2022-10-12T01:32:21.764Z,5.40
2022-10-12T01:34:58.296Z,5.00
2022-10-12T01:37:45.483Z,5.10
2022-10-12T01:40:20.354Z,4.93
2022-10-12T01:42:48.370Z,5.97
2022-10-12T01:45:18.292Z,5.53
2022-10-12T01:47:49.531Z,5.80
2022-10-12T01:50:18.767Z,4.80
2022-10-12T01:52:58.187Z,5.40
2022-10-12T01:55:53.960Z,5.00
2022-10-12T01:58:39.916Z,4.50
2022-10-12T02:01:34.789Z,5.53
2022-10-12T02:04:20.527Z,4.67
2022-10-12T02:06:53.503Z,5.20
2022-10-12T02:09:33.234Z,5.73
2022-10-12T02:12:08.247Z,5.57
2022-10-12T02:14:42.116Z,6.17
2022-10-12T02:17:13.840Z,4.60
2022-10-12T02:19:48.512Z,5.23
2022-10-12T02:22:17.240Z,6.10
2022-10-12T02:24:47.961Z,5.43
2022-10-12T02:27:16.867Z,5.70
2022-10-12T02:29:46.676Z,5.30
2022-10-12T02:32:30.108Z,5.93
2022-10-12T02:35:15.547Z,5.57
2022-10-12T02:37:49.921Z,5.63
2022-10-12T02:40:38.869Z,5.50
2022-10-12T02:43:16.497Z,5.57
2022-10-12T02:45:46.458Z,6.23
2022-10-12T02:48:20.046Z,5.93
2022-10-12T02:50:49.294Z,6.37
2022-10-12T02:53:17.183Z,5.87
2022-10-12T02:55:52.973Z,5.93
2022-10-12T02:58:20.767Z,5.30
2022-10-12T03:00:47.947Z,5.67
2022-10-12T03:03:14.939Z,6.37
2022-10-12T03:05:41.795Z,6.03
2022-10-12T03:08:08.800Z,6.47
2022-10-12T03:10:35.760Z,5.43
2022-10-12T03:13:03.045Z,6.03
2022-10-12T03:15:30.598Z,6.23
2022-10-12T03:17:57.471Z,6.80
2022-10-12T03:20:24.568Z,5.80
2022-10-12T03:22:51.860Z,6.63
2022-10-12T03:25:19.068Z,6.63
2022-10-12T03:27:46.050Z,6.77
2022-10-12T03:30:13.689Z,6.40
2022-10-12T03:32:40.895Z,6.23
2022-10-12T03:35:08.569Z,6.43
2022-10-12T03:37:35.655Z,6.97
2022-10-12T03:40:03.331Z,6.20
2022-10-12T03:42:30.258Z,6.90
2022-10-12T03:44:57.167Z,6.80
2022-10-12T03:47:24.047Z,6.17
2022-10-12T03:49:51.168Z,6.83
2022-10-12T03:52:18.187Z,7.80
2022-10-12T03:54:45.258Z,6.30
2022-10-12T03:57:12.181Z,7.03
2022-10-12T03:59:39.072Z,7.07
2022-10-12T04:02:05.963Z,6.57
2022-10-12T04:04:32.918Z,6.60
2022-10-12T04:06:59.876Z,6.70
2022-10-12T04:09:27.030Z,6.07
2022-10-12T04:11:53.993Z,6.10
2022-10-12T04:14:20.892Z,6.87
2022-10-12T04:16:47.807Z,7.13
2022-10-12T04:19:15.011Z,7.80
2022-10-12T04:21:42.061Z,6.93
2022-10-12T04:24:09.009Z,6.90
2022-10-12T04:26:35.964Z,7.80
2022-10-12T04:29:03.596Z,6.93
2022-10-12T04:31:30.805Z,7.00
2022-10-12T04:33:57.890Z,6.47
2022-10-12T04:36:26.238Z,6.33
2022-10-12T04:38:58.395Z,6.83
2022-10-12T04:41:28.008Z,6.47
2022-10-12T04:43:55.004Z,6.63
2022-10-12T04:46:22.337Z,7.07
2022-10-12T04:48:49.839Z,6.47
2022-10-12T04:51:17.066Z,7.53
2022-10-12T04:53:43.968Z,6.57
2022-10-12T04:56:10.943Z,7.73
2022-10-12T04:58:37.966Z,7.10
2022-10-12T05:01:05.114Z,7.33
2022-10-12T05:03:32.271Z,7.33
2022-10-12T05:05:59.267Z,7.10
2022-10-12T05:08:26.364Z,7.20
2022-10-12T05:10:53.490Z,6.63
2022-10-12T05:13:20.424Z,7.43
2022-10-12T05:15:47.453Z,7.17
2022-10-12T05:18:14.531Z,7.47
2022-10-12T05:20:41.467Z,8.00
2022-10-12T05:23:09.627Z,8.53
2022-10-12T05:25:36.662Z,9.03
2022-10-12T05:28:03.887Z,9.17
2022-10-12T05:30:31.054Z,8.60
2022-10-12T05:32:58.082Z,7.70
2022-10-12T05:35:25.037Z,7.23
2022-10-12T05:37:51.974Z,7.77
2022-10-12T05:40:19.175Z,7.67
2022-10-12T05:42:46.352Z,7.70
2022-10-12T05:45:13.743Z,8.10
2022-10-12T05:47:41.548Z,8.77
2022-10-12T05:50:08.990Z,8.53
2022-10-12T05:52:36.565Z,7.83
2022-10-12T05:55:03.930Z,7.73
2022-10-12T05:57:31.295Z,7.53
2022-10-12T05:59:58.334Z,6.87
2022-10-12T06:02:25.363Z,7.03
2022-10-12T06:04:52.343Z,7.63
2022-10-12T06:07:19.247Z,7.97
2022-10-12T06:09:47.630Z,8.43
2022-10-12T06:12:14.795Z,7.77
2022-10-12T06:14:41.796Z,7.67
2022-10-12T06:17:09.699Z,7.53
2022-10-12T06:19:37.120Z,8.20
2022-10-12T06:22:04.144Z,7.73
2022-10-12T06:24:31.124Z,8.33
2022-10-12T06:26:58.720Z,9.13
2022-10-12T06:29:26.095Z,7.73
2022-10-12T06:31:54.246Z,9.03
2022-10-12T06:34:21.461Z,8.17
2022-10-12T06:36:49.595Z,8.03
2022-10-12T06:39:16.525Z,8.70
2022-10-12T06:41:43.528Z,8.03
2022-10-12T06:44:10.481Z,8.27
2022-10-12T06:46:37.549Z,8.50
2022-10-12T06:49:04.500Z,9.17
2022-10-12T06:51:31.383Z,8.40
2022-10-12T06:53:58.323Z,8.67
2022-10-12T06:56:25.304Z,8.40
2022-10-12T06:58:56.287Z,7.53
2022-10-12T07:01:24.292Z,8.07
2022-10-12T07:03:51.254Z,7.37
2022-10-12T07:06:18.442Z,8.47
2022-10-12T07:08:45.324Z,7.87
2022-10-12T07:11:13.666Z,7.70
2022-10-12T07:13:41.048Z,8.63
2022-10-12T07:16:08.239Z,8.07
2022-10-12T07:18:35.250Z,8.17
2022-10-12T07:21:02.916Z,8.80
2022-10-12T07:23:31.719Z,7.50
2022-10-12T07:25:59.163Z,8.07
2022-10-12T07:28:26.389Z,8.50
2022-10-12T07:30:53.439Z,8.97
2022-10-12T07:33:20.332Z,7.83
2022-10-12T07:36:12.789Z,8.90
2022-10-12T07:38:40.295Z,8.30
2022-10-12T07:41:07.613Z,8.87
2022-10-12T07:43:34.579Z,8.53
2022-10-12T07:46:01.559Z,8.30
2022-10-12T07:48:28.495Z,8.60
2022-10-12T07:50:55.532Z,8.13
2022-10-12T07:53:22.735Z,8.43
2022-10-12T07:55:50.154Z,7.77
2022-10-12T07:58:17.210Z,7.83
2022-10-12T08:00:44.108Z,8.13
2022-10-12T08:03:11.317Z,8.33
2022-10-12T08:05:38.626Z,8.47
2022-10-12T08:08:05.881Z,8.10
2022-10-12T08:10:34.682Z,8.67
2022-10-12T08:13:01.940Z,9.37
2022-10-12T08:15:28.912Z,8.60
2022-10-12T08:17:55.951Z,8.87
2022-10-12T08:20:22.877Z,9.40
2022-10-12T08:22:49.761Z,8.87
2022-10-12T08:25:16.680Z,8.43
2022-10-12T08:27:43.579Z,7.20
2022-10-12T08:30:11.178Z,7.60
2022-10-12T08:32:38.262Z,7.77
2022-10-12T08:35:05.957Z,7.87
2022-10-12T08:37:32.843Z,7.77
2022-10-12T08:40:03.012Z,7.47
2022-10-12T08:42:55.483Z,8.07
2022-10-12T08:45:35.001Z,7.95
2022-10-12T08:55:46.187Z,8.73
2022-10-12T08:58:40.619Z,8.83
2022-10-12T09:01:37.064Z,8.80
2022-10-12T09:04:20.201Z,7.83
2022-10-12T09:07:16.949Z,8.47
2022-10-12T09:09:56.762Z,8.27
2022-10-12T09:12:34.169Z,8.60
2022-10-12T09:15:05.521Z,9.73
2022-10-12T09:17:53.244Z,9.80
2022-10-12T09:20:22.927Z,10.07
2022-10-12T09:22:53.244Z,9.90
2022-10-12T09:25:27.468Z,8.93
2022-10-12T09:27:57.564Z,9.67
2022-10-12T09:30:24.919Z,9.10
2022-10-12T09:33:23.754Z,8.90
2022-10-12T09:35:52.573Z,10.67
2022-10-12T09:38:19.516Z,11.00
2022-10-12T09:40:47.172Z,10.07
2022-10-12T09:43:15.488Z,10.30
2022-10-12T09:45:43.472Z,10.00
2022-10-12T09:48:13.241Z,10.95
2022-10-12T10:00:45.297Z,10.33
2022-10-12T13:42:33.769Z,10.53
2022-10-12T18:15:58.120Z,13.55
2022-10-12T18:18:26.142Z,12.17
2022-10-12T18:20:53.590Z,12.47
2022-10-12T18:23:20.592Z,11.57
2022-10-12T18:25:47.621Z,13.67
2022-10-12T18:28:14.880Z,14.60
2022-10-12T18:30:48.988Z,15.83
2022-10-12T18:33:17.311Z,15.33
2022-10-12T18:35:44.334Z,16.60
2022-10-12T18:38:11.759Z,16.13
2022-10-12T18:40:42.204Z,14.30
2022-10-12T18:43:10.508Z,14.33
2022-10-12T18:45:45.209Z,14.70
2022-10-12T18:48:12.940Z,13.63
2022-10-12T18:50:40.364Z,13.77
2022-10-12T18:53:07.334Z,14.33
2022-10-12T18:55:38.103Z,15.10
2022-10-12T18:58:09.233Z,16.50
2022-10-12T19:00:36.897Z,14.93
2022-10-12T19:03:05.498Z,15.57
2022-10-12T19:05:33.902Z,18.43
2022-10-12T19:08:00.865Z,17.13
2022-10-12T19:10:27.887Z,15.87
2022-10-12T19:12:56.097Z,15.63
2022-10-12T19:15:23.357Z,15.30
2022-10-12T19:17:51.538Z,14.77
2022-10-12T19:20:18.743Z,14.50
2022-10-12T19:22:45.681Z,14.87
2022-10-12T19:25:12.689Z,15.00
2022-10-12T19:27:39.862Z,14.30
2022-10-12T19:30:11.566Z,14.30
2022-10-12T19:32:39.185Z,13.50
2022-10-12T19:35:06.891Z,14.17
2022-10-12T19:37:37.054Z,13.83
2022-10-12T19:40:07.846Z,15.37
2022-10-12T19:42:35.445Z,15.00
2022-10-12T19:45:03.736Z,15.30
2022-10-12T19:47:30.806Z,16.60
2022-10-12T19:49:58.012Z,17.47
2022-10-12T19:52:24.988Z,17.83
2022-10-12T19:54:52.085Z,15.77
2022-10-12T19:57:21.505Z,15.43
2022-10-12T19:59:53.301Z,15.03
2022-10-12T20:02:23.277Z,14.80
2022-10-12T20:04:54.245Z,16.50
2022-10-12T20:07:21.705Z,14.87
2022-10-12T20:09:49.131Z,15.40
2022-10-12T20:12:16.398Z,13.57
2022-10-12T20:14:43.580Z,16.10
2022-10-12T20:17:10.485Z,14.97
2022-10-12T20:19:37.660Z,16.67
2022-10-12T20:22:04.707Z,16.20
2022-10-12T20:24:31.635Z,17.13
2022-10-12T20:26:58.636Z,17.10
2022-10-12T20:29:25.546Z,17.60
2022-10-12T20:31:52.605Z,18.20
2022-10-12T20:34:19.616Z,16.67
2022-10-12T20:36:46.739Z,16.20
2022-10-12T20:39:13.670Z,16.63
2022-10-12T20:41:41.468Z,16.73
2022-10-12T20:44:09.948Z,16.80
2022-10-12T20:46:37.137Z,16.77
2022-10-12T20:49:04.584Z,17.10
2022-10-12T20:51:35.913Z,18.53
2022-10-12T20:54:05.252Z,17.03
2022-10-12T20:56:33.739Z,15.47
2022-10-12T20:59:01.393Z,16.17
2022-10-12T21:01:28.749Z,18.43
2022-10-12T21:03:56.338Z,18.70
2022-10-12T21:06:23.921Z,21.20
2022-10-12T21:08:53.270Z,19.97
2022-10-12T21:11:20.915Z,18.47
2022-10-12T21:13:49.520Z,18.10
2022-10-12T21:16:16.553Z,17.23
2022-10-12T21:18:43.549Z,17.97
2022-10-12T21:21:13.804Z,17.27
2022-10-12T21:23:42.580Z,16.50
2022-10-12T21:26:15.596Z,17.57
2022-10-12T21:28:42.979Z,17.33
2022-10-12T21:31:10.700Z,16.10
2022-10-12T21:33:39.032Z,18.60
2022-10-12T21:36:27.050Z,16.33
2022-10-12T21:38:54.983Z,16.93
2022-10-12T21:41:27.759Z,16.73
2022-10-12T21:43:56.076Z,17.20
2022-10-12T21:46:26.167Z,16.90
2022-10-12T21:48:53.814Z,16.57
2022-10-12T21:51:22.850Z,16.10
2022-10-12T21:53:50.415Z,17.17
2022-10-12T21:56:27.398Z,19.00
2022-10-12T21:58:59.121Z,19.90
2022-10-12T22:01:29.977Z,18.77
2022-10-12T22:03:59.982Z,18.70
2022-10-12T22:06:28.804Z,19.33
2022-10-12T22:09:06.244Z,18.17
2022-10-12T22:11:35.233Z,19.17
2022-10-12T22:14:08.438Z,21.10
2022-10-12T22:16:36.933Z,22.03
2022-10-12T22:19:06.560Z,23.60
2022-10-12T22:21:35.316Z,23.13
2022-10-12T22:24:02.656Z,22.10
2022-10-12T22:26:30.006Z,21.70
2022-10-12T22:28:59.314Z,20.23
2022-10-12T22:31:27.024Z,21.00
2022-10-12T22:33:55.027Z,18.87
2022-10-12T22:36:22.026Z,19.13
2022-10-12T22:38:48.984Z,18.47
2022-10-12T22:41:20.840Z,17.00
2022-10-12T22:43:48.864Z,16.80
2022-10-12T22:46:16.620Z,19.47
2022-10-12T22:48:43.814Z,18.40
2022-10-12T22:51:16.133Z,16.97
2022-10-12T22:53:43.105Z,16.67
2022-10-12T22:56:16.480Z,17.23
2022-10-12T22:58:43.665Z,15.70
2022-10-12T23:01:15.532Z,14.40
2022-10-12T23:03:42.464Z,14.80
2022-10-12T23:06:16.208Z,14.50
2022-10-12T23:08:43.419Z,14.90
2022-10-12T23:11:16.218Z,14.97
2022-10-12T23:13:43.893Z,14.40
2022-10-12T23:16:31.584Z,15.00
2022-10-12T23:19:05.216Z,13.97
2022-10-12T23:21:33.983Z,14.23
2022-10-12T23:24:01.937Z,15.50
2022-10-12T23:26:29.574Z,15.20
2022-10-12T23:28:56.798Z,14.70
2022-10-12T23:31:27.699Z,16.63
2022-10-12T23:34:03.936Z,16.37
2022-10-12T23:36:31.431Z,16.23
2022-10-12T23:39:02.641Z,16.30
2022-10-12T23:41:29.732Z,15.67
2022-10-12T23:43:56.904Z,16.43
2022-10-12T23:46:23.880Z,15.60
2022-10-12T23:48:51.578Z,15.47
2022-10-12T23:51:18.703Z,14.83
2022-10-12T23:53:45.655Z,17.27
2022-10-12T23:56:13.258Z,15.90
2022-10-12T23:58:40.800Z,15.60
